sensor_id;sensor_type;location;lat;lon;timestamp;temperature;humidity
11540;DHT22;5826;54.756;9.192;2022-12-16T00:01:45;1.90;99.90
11540;DHT22;5826;54.756;9.192;2022-12-16T00:04:11;1.90;99.90
11540;DHT22;5826;54.756;9.192;2022-12-16T00:06:36;1.90;99.90
11540;DHT22;5826;54.756;9.192;2022-12-16T00:09:02;1.90;99.90
11540;DHT22;5826;54.756;9.192;2022-12-16T00:11:27;1.90;99.90
11540;DHT22;5826;54.756;9.192;2022-12-16T00:13:56;1.80;99.90
11540;DHT22;5826;54.756;9.192;2022-12-16T00:16:22;1.80;99.90
11540;DHT22;5826;54.756;9.192;2022-12-16T00:18:47;1.80;99.90
11540;DHT22;5826;54.756;9.192;2022-12-16T00:21:13;1.90;99.90
11540;DHT22;5826;54.756;9.192;2022-12-16T00:23:39;1.90;99.90
11540;DHT22;5826;54.756;9.192;2022-12-16T00:26:08;1.90;99.90
11540;DHT22;5826;54.756;9.192;2022-12-16T00:28:34;2.30;99.90
11540;DHT22;5826;54.756;9.192;2022-12-16T00:31:00;1.90;99.90
11540;DHT22;5826;54.756;9.192;2022-12-16T00:33:26;1.80;99.90
11540;DHT22;5826;54.756;9.192;2022-12-16T00:35:52;1.80;99.90
11540;DHT22;5826;54.756;9.192;2022-12-16T00:38:18;1.80;99.90
11540;DHT22;5826;54.756;9.192;2022-12-16T00:40:44;1.70;99.90
11540;DHT22;5826;54.756;9.192;2022-12-16T00:43:10;1.70;99.90
11540;DHT22;5826;54.756;9.192;2022-12-16T00:45:36;1.70;99.90
11540;DHT22;5826;54.756;9.192;2022-12-16T00:48:02;1.70;99.90
11540;DHT22;5826;54.756;9.192;2022-12-16T00:50:27;1.60;99.90
11540;DHT22;5826;54.756;9.192;2022-12-16T00:52:53;1.70;99.90
11540;DHT22;5826;54.756;9.192;2022-12-16T00:55:19;1.60;99.90
11540;DHT22;5826;54.756;9.192;2022-12-16T00:57:44;1.50;99.90
11540;DHT22;5826;54.756;9.192;2022-12-16T01:00:11;1.50;99.90
11540;DHT22;5826;54.756;9.192;2022-12-16T01:02:42;1.50;99.90
11540;DHT22;5826;54.756;9.192;2022-12-16T01:05:10;1.50;99.90
11540;DHT22;5826;54.756;9.192;2022-12-16T01:07:35;1.40;99.90
11540;DHT22;5826;54.756;9.192;2022-12-16T01:10:02;1.40;99.90
11540;DHT22;5826;54.756;9.192;2022-12-16T01:12:28;1.40;99.90
11540;DHT22;5826;54.756;9.192;2022-12-16T01:14:54;1.40;99.90
11540;DHT22;5826;54.756;9.192;2022-12-16T01:17:19;1.40;99.90
11540;DHT22;5826;54.756;9.192;2022-12-16T01:19:45;1.40;99.90
11540;DHT22;5826;54.756;9.192;2022-12-16T01:22:11;1.90;99.90
11540;DHT22;5826;54.756;9.192;2022-12-16T01:24:36;1.80;99.90
11540;DHT22;5826;54.756;9.192;2022-12-16T01:27:02;1.40;99.90
11540;DHT22;5826;54.756;9.192;2022-12-16T01:29:27;1.40;99.90
11540;DHT22;5826;54.756;9.192;2022-12-16T01:31:53;1.40;99.90
11540;DHT22;5826;54.756;9.192;2022-12-16T01:34:18;1.40;99.90
11540;DHT22;5826;54.756;9.192;2022-12-16T01:36:44;1.40;99.90
11540;DHT22;5826;54.756;9.192;2022-12-16T01:39:09;1.40;99.90
11540;DHT22;5826;54.756;9.192;2022-12-16T01:41:35;1.40;99.90
11540;DHT22;5826;54.756;9.192;2022-12-16T01:44:16;1.40;99.90
11540;DHT22;5826;54.756;9.192;2022-12-16T01:46:44;1.40;99.90
11540;DHT22;5826;54.756;9.192;2022-12-16T01:49:23;1.40;99.90
11540;DHT22;5826;54.756;9.192;2022-12-16T01:51:50;1.30;99.90
11540;DHT22;5826;54.756;9.192;2022-12-16T01:54:28;1.30;99.90
11540;DHT22;5826;54.756;9.192;2022-12-16T01:56:58;1.30;99.90
11540;DHT22;5826;54.756;9.192;2022-12-16T01:59:26;1.30;99.90
11540;DHT22;5826;54.756;9.192;2022-12-16T02:01:53;1.20;99.90
11540;DHT22;5826;54.756;9.192;2022-12-16T02:04:18;1.20;99.90
11540;DHT22;5826;54.756;9.192;2022-12-16T02:06:44;1.20;99.90
11540;DHT22;5826;54.756;9.192;2022-12-16T02:09:11;1.10;99.90
11540;DHT22;5826;54.756;9.192;2022-12-16T02:12:03;1.10;99.90
11540;DHT22;5826;54.756;9.192;2022-12-16T02:15:02;1.10;99.90
11540;DHT22;5826;54.756;9.192;2022-12-16T02:17:54;1.10;99.90
11540;DHT22;5826;54.756;9.192;2022-12-16T02:20:38;1.10;99.90
11540;DHT22;5826;54.756;9.192;2022-12-16T02:26:40;1.10;99.90
11540;DHT22;5826;54.756;9.192;2022-12-16T02:35:02;1.20;99.90
11540;DHT22;5826;54.756;9.192;2022-12-16T02:37:55;1.10;99.90
11540;DHT22;5826;54.756;9.192;2022-12-16T02:40:43;1.10;99.90
11540;DHT22;5826;54.756;9.192;2022-12-16T02:46:06;1.20;99.90
11540;DHT22;5826;54.756;9.192;2022-12-16T02:48:32;1.20;99.90
11540;DHT22;5826;54.756;9.192;2022-12-16T02:50:58;1.40;99.90
11540;DHT22;5826;54.756;9.192;2022-12-16T02:53:23;1.20;99.90
11540;DHT22;5826;54.756;9.192;2022-12-16T03:01:30;1.20;99.90
11540;DHT22;5826;54.756;9.192;2022-12-16T03:04:12;1.20;99.90
11540;DHT22;5826;54.756;9.192;2022-12-16T03:06:42;1.20;99.90
11540;DHT22;5826;54.756;9.192;2022-12-16T03:09:12;1.10;99.90
11540;DHT22;5826;54.756;9.192;2022-12-16T03:11:40;1.20;99.90
11540;DHT22;5826;54.756;9.192;2022-12-16T03:14:07;1.00;99.90
11540;DHT22;5826;54.756;9.192;2022-12-16T03:16:35;0.90;99.90
11540;DHT22;5826;54.756;9.192;2022-12-16T03:19:03;1.30;99.90
11540;DHT22;5826;54.756;9.192;2022-12-16T03:22:17;1.00;99.90
11540;DHT22;5826;54.756;9.192;2022-12-16T03:24:23;0.90;99.90
11540;DHT22;5826;54.756;9.192;2022-12-16T03:32:26;0.70;99.90
11540;DHT22;5826;54.756;9.192;2022-12-16T03:35:00;0.70;99.90
11540;DHT22;5826;54.756;9.192;2022-12-16T03:37:32;0.70;99.90
11540;DHT22;5826;54.756;9.192;2022-12-16T03:40:00;0.90;99.90
11540;DHT22;5826;54.756;9.192;2022-12-16T03:42:27;0.70;99.90
11540;DHT22;5826;54.756;9.192;2022-12-16T03:44:53;0.70;99.90
11540;DHT22;5826;54.756;9.192;2022-12-16T03:47:19;0.70;99.90
11540;DHT22;5826;54.756;9.192;2022-12-16T03:49:44;0.70;99.90
11540;DHT22;5826;54.756;9.192;2022-12-16T03:52:10;0.70;99.90
11540;DHT22;5826;54.756;9.192;2022-12-16T03:54:35;1.30;99.90
11540;DHT22;5826;54.756;9.192;2022-12-16T03:57:01;0.90;99.90
11540;DHT22;5826;54.756;9.192;2022-12-16T03:59:27;0.90;99.90
11540;DHT22;5826;54.756;9.192;2022-12-16T04:01:53;1.00;99.90
11540;DHT22;5826;54.756;9.192;2022-12-16T04:04:18;1.00;99.90
11540;DHT22;5826;54.756;9.192;2022-12-16T04:06:44;1.00;99.90
11540;DHT22;5826;54.756;9.192;2022-12-16T04:09:10;1.00;99.90
11540;DHT22;5826;54.756;9.192;2022-12-16T04:11:35;1.00;99.90
11540;DHT22;5826;54.756;9.192;2022-12-16T04:14:19;1.00;99.90
11540;DHT22;5826;54.756;9.192;2022-12-16T04:17:04;1.00;99.90
11540;DHT22;5826;54.756;9.192;2022-12-16T04:19:49;1.50;99.90
11540;DHT22;5826;54.756;9.192;2022-12-16T04:22:39;0.90;99.90
11540;DHT22;5826;54.756;9.192;2022-12-16T04:25:33;1.00;99.90
11540;DHT22;5826;54.756;9.192;2022-12-16T04:28:00;0.80;99.90
11540;DHT22;5826;54.756;9.192;2022-12-16T04:30:27;0.70;99.90
11540;DHT22;5826;54.756;9.192;2022-12-16T04:32:56;0.60;99.90
11540;DHT22;5826;54.756;9.192;2022-12-16T04:35:41;0.60;99.90
11540;DHT22;5826;54.756;9.192;2022-12-16T04:38:25;0.70;99.90
11540;DHT22;5826;54.756;9.192;2022-12-16T04:41:10;0.40;99.90
11540;DHT22;5826;54.756;9.192;2022-12-16T04:43:54;0.40;99.90
11540;DHT22;5826;54.756;9.192;2022-12-16T04:46:38;0.40;99.90
11540;DHT22;5826;54.756;9.192;2022-12-16T04:49:22;0.40;99.90
11540;DHT22;5826;54.756;9.192;2022-12-16T04:52:06;0.40;99.90
11540;DHT22;5826;54.756;9.192;2022-12-16T04:54:50;0.30;99.90
11540;DHT22;5826;54.756;9.192;2022-12-16T04:57:34;0.50;99.90
11540;DHT22;5826;54.756;9.192;2022-12-16T05:00:19;0.20;99.90
11540;DHT22;5826;54.756;9.192;2022-12-16T05:03:03;0.20;99.90
11540;DHT22;5826;54.756;9.192;2022-12-16T05:05:47;0.20;99.90
11540;DHT22;5826;54.756;9.192;2022-12-16T05:08:31;0.20;99.90
11540;DHT22;5826;54.756;9.192;2022-12-16T05:11:15;0.20;99.90
11540;DHT22;5826;54.756;9.192;2022-12-16T05:13:59;0.20;99.90
11540;DHT22;5826;54.756;9.192;2022-12-16T05:16:43;0.20;99.90
11540;DHT22;5826;54.756;9.192;2022-12-16T05:19:27;0.60;99.90
11540;DHT22;5826;54.756;9.192;2022-12-16T05:22:11;0.10;99.90
11540;DHT22;5826;54.756;9.192;2022-12-16T05:24:55;0.10;99.90
11540;DHT22;5826;54.756;9.192;2022-12-16T05:27:39;0.10;99.90
11540;DHT22;5826;54.756;9.192;2022-12-16T05:30:23;0.10;99.90
11540;DHT22;5826;54.756;9.192;2022-12-16T05:33:07;0.10;99.90
11540;DHT22;5826;54.756;9.192;2022-12-16T05:35:51;0.60;99.90
11540;DHT22;5826;54.756;9.192;2022-12-16T05:38:35;0.10;99.90
11540;DHT22;5826;54.756;9.192;2022-12-16T05:41:19;0.10;99.90
11540;DHT22;5826;54.756;9.192;2022-12-16T05:44:03;0.10;99.90
11540;DHT22;5826;54.756;9.192;2022-12-16T05:46:47;0.10;99.90
11540;DHT22;5826;54.756;9.192;2022-12-16T05:49:31;0.10;99.90
11540;DHT22;5826;54.756;9.192;2022-12-16T05:52:17;0.00;99.90
11540;DHT22;5826;54.756;9.192;2022-12-16T05:55:01;0.10;99.90
11540;DHT22;5826;54.756;9.192;2022-12-16T05:57:49;0.00;99.90
11540;DHT22;5826;54.756;9.192;2022-12-16T06:00:34;0.40;99.90
11540;DHT22;5826;54.756;9.192;2022-12-16T06:03:18;-0.10;99.90
11540;DHT22;5826;54.756;9.192;2022-12-16T06:06:02;-0.10;99.90
11540;DHT22;5826;54.756;9.192;2022-12-16T06:08:46;-0.20;99.90
11540;DHT22;5826;54.756;9.192;2022-12-16T06:11:30;-0.30;99.90
11540;DHT22;5826;54.756;9.192;2022-12-16T06:14:14;-0.30;99.90
11540;DHT22;5826;54.756;9.192;2022-12-16T06:16:58;-0.30;99.90
11540;DHT22;5826;54.756;9.192;2022-12-16T06:19:42;-0.30;99.90
11540;DHT22;5826;54.756;9.192;2022-12-16T06:22:26;0.10;99.90
11540;DHT22;5826;54.756;9.192;2022-12-16T06:25:10;-0.10;99.90
11540;DHT22;5826;54.756;9.192;2022-12-16T06:27:54;-0.50;99.90
11540;DHT22;5826;54.756;9.192;2022-12-16T06:30:38;-0.50;99.90
11540;DHT22;5826;54.756;9.192;2022-12-16T06:33:22;-0.40;99.90
11540;DHT22;5826;54.756;9.192;2022-12-16T06:36:06;-0.60;99.90
11540;DHT22;5826;54.756;9.192;2022-12-16T06:38:50;-0.60;99.90
11540;DHT22;5826;54.756;9.192;2022-12-16T06:41:34;-0.70;99.90
11540;DHT22;5826;54.756;9.192;2022-12-16T06:44:19;-0.80;99.90
11540;DHT22;5826;54.756;9.192;2022-12-16T06:47:03;-0.80;99.90
11540;DHT22;5826;54.756;9.192;2022-12-16T06:49:47;-0.70;99.90
11540;DHT22;5826;54.756;9.192;2022-12-16T06:52:31;-0.80;99.90
11540;DHT22;5826;54.756;9.192;2022-12-16T06:55:15;-0.80;99.90
11540;DHT22;5826;54.756;9.192;2022-12-16T06:57:59;-0.80;99.90
11540;DHT22;5826;54.756;9.192;2022-12-16T07:00:44;-0.50;99.90
11540;DHT22;5826;54.756;9.192;2022-12-16T07:03:28;-0.90;99.90
11540;DHT22;5826;54.756;9.192;2022-12-16T07:06:12;-1.00;99.90
11540;DHT22;5826;54.756;9.192;2022-12-16T07:08:56;-1.00;99.90
11540;DHT22;5826;54.756;9.192;2022-12-16T07:11:40;-0.60;99.90
11540;DHT22;5826;54.756;9.192;2022-12-16T07:14:24;-0.90;99.90
11540;DHT22;5826;54.756;9.192;2022-12-16T07:17:28;-0.90;99.90
11540;DHT22;5826;54.756;9.192;2022-12-16T07:20:12;-0.90;99.90
11540;DHT22;5826;54.756;9.192;2022-12-16T07:22:56;-0.90;99.90
11540;DHT22;5826;54.756;9.192;2022-12-16T07:25:40;-0.90;99.90
11540;DHT22;5826;54.756;9.192;2022-12-16T07:28:24;-0.90;99.90
11540;DHT22;5826;54.756;9.192;2022-12-16T07:31:08;-0.80;99.90
11540;DHT22;5826;54.756;9.192;2022-12-16T07:33:52;-0.80;99.90
11540;DHT22;5826;54.756;9.192;2022-12-16T07:36:36;-0.70;99.90
11540;DHT22;5826;54.756;9.192;2022-12-16T07:39:20;-0.60;99.90
11540;DHT22;5826;54.756;9.192;2022-12-16T07:42:04;-0.60;99.90
11540;DHT22;5826;54.756;9.192;2022-12-16T07:44:48;-0.40;99.90
11540;DHT22;5826;54.756;9.192;2022-12-16T07:47:32;-0.50;99.90
11540;DHT22;5826;54.756;9.192;2022-12-16T07:50:16;-0.50;99.90
11540;DHT22;5826;54.756;9.192;2022-12-16T07:53:00;-0.50;99.90
11540;DHT22;5826;54.756;9.192;2022-12-16T07:55:44;-0.40;99.90
11540;DHT22;5826;54.756;9.192;2022-12-16T07:58:29;-0.40;99.90
11540;DHT22;5826;54.756;9.192;2022-12-16T08:01:13;-0.40;99.90
11540;DHT22;5826;54.756;9.192;2022-12-16T08:03:57;-0.30;99.90
11540;DHT22;5826;54.756;9.192;2022-12-16T08:06:41;-0.30;99.90
11540;DHT22;5826;54.756;9.192;2022-12-16T08:09:25;0.00;99.90
11540;DHT22;5826;54.756;9.192;2022-12-16T08:12:09;-0.40;99.90
11540;DHT22;5826;54.756;9.192;2022-12-16T08:14:53;-0.40;99.90
11540;DHT22;5826;54.756;9.192;2022-12-16T08:17:40;-0.40;99.90
11540;DHT22;5826;54.756;9.192;2022-12-16T08:20:26;0.20;99.90
11540;DHT22;5826;54.756;9.192;2022-12-16T08:23:09;-0.40;99.90
11540;DHT22;5826;54.756;9.192;2022-12-16T08:25:54;-0.50;99.90
11540;DHT22;5826;54.756;9.192;2022-12-16T08:28:37;-0.50;99.90
11540;DHT22;5826;54.756;9.192;2022-12-16T08:31:21;-0.50;99.90
11540;DHT22;5826;54.756;9.192;2022-12-16T08:34:06;-0.10;99.90
11540;DHT22;5826;54.756;9.192;2022-12-16T08:36:50;-0.60;99.90
11540;DHT22;5826;54.756;9.192;2022-12-16T08:39:34;-0.30;99.90
11540;DHT22;5826;54.756;9.192;2022-12-16T08:42:18;-0.50;99.90
11540;DHT22;5826;54.756;9.192;2022-12-16T08:45:02;-0.50;99.90
11540;DHT22;5826;54.756;9.192;2022-12-16T08:47:46;-0.50;99.90
11540;DHT22;5826;54.756;9.192;2022-12-16T08:50:30;0.00;99.90
11540;DHT22;5826;54.756;9.192;2022-12-16T08:53:14;-0.50;99.90
11540;DHT22;5826;54.756;9.192;2022-12-16T08:55:58;-0.50;99.90
11540;DHT22;5826;54.756;9.192;2022-12-16T08:58:42;-0.50;99.90
11540;DHT22;5826;54.756;9.192;2022-12-16T09:01:26;-0.50;99.90
11540;DHT22;5826;54.756;9.192;2022-12-16T09:04:10;-0.50;99.90
11540;DHT22;5826;54.756;9.192;2022-12-16T09:06:54;-0.40;99.90
11540;DHT22;5826;54.756;9.192;2022-12-16T09:09:38;-0.40;99.90
11540;DHT22;5826;54.756;9.192;2022-12-16T09:12:22;-0.40;99.90
11540;DHT22;5826;54.756;9.192;2022-12-16T09:15:06;0.10;99.90
11540;DHT22;5826;54.756;9.192;2022-12-16T09:17:54;-0.30;99.90
11540;DHT22;5826;54.756;9.192;2022-12-16T09:20:39;-0.30;99.90
11540;DHT22;5826;54.756;9.192;2022-12-16T09:23:24;-0.30;99.90
11540;DHT22;5826;54.756;9.192;2022-12-16T09:26:08;-0.30;99.90
11540;DHT22;5826;54.756;9.192;2022-12-16T09:28:52;-0.30;99.90
11540;DHT22;5826;54.756;9.192;2022-12-16T09:31:36;-0.30;99.90
11540;DHT22;5826;54.756;9.192;2022-12-16T09:34:20;-0.30;99.90
11540;DHT22;5826;54.756;9.192;2022-12-16T09:37:04;-0.20;99.90
11540;DHT22;5826;54.756;9.192;2022-12-16T09:39:48;0.30;99.90
11540;DHT22;5826;54.756;9.192;2022-12-16T09:42:53;-0.20;99.90
11540;DHT22;5826;54.756;9.192;2022-12-16T09:52:01;0.00;99.90
11540;DHT22;5826;54.756;9.192;2022-12-16T09:54:46;0.10;99.90
11540;DHT22;5826;54.756;9.192;2022-12-16T09:57:33;0.10;99.90
11540;DHT22;5826;54.756;9.192;2022-12-16T10:00:23;0.20;99.90
11540;DHT22;5826;54.756;9.192;2022-12-16T10:03:23;0.80;99.90
11540;DHT22;5826;54.756;9.192;2022-12-16T10:09:39;0.40;99.90
11540;DHT22;5826;54.756;9.192;2022-12-16T10:18:54;0.60;99.90
11540;DHT22;5826;54.756;9.192;2022-12-16T10:25:14;0.70;99.90
11540;DHT22;5826;54.756;9.192;2022-12-16T10:28:17;0.70;99.90
11540;DHT22;5826;54.756;9.192;2022-12-16T10:31:18;0.70;99.90
11540;DHT22;5826;54.756;9.192;2022-12-16T10:34:04;0.70;99.90
11540;DHT22;5826;54.756;9.192;2022-12-16T10:36:52;0.80;99.90
11540;DHT22;5826;54.756;9.192;2022-12-16T10:39:40;0.80;99.90
11540;DHT22;5826;54.756;9.192;2022-12-16T10:42:29;0.80;99.90
11540;DHT22;5826;54.756;9.192;2022-12-16T10:45:24;0.80;99.90
11540;DHT22;5826;54.756;9.192;2022-12-16T10:48:10;1.10;99.90
11540;DHT22;5826;54.756;9.192;2022-12-16T10:50:54;0.90;99.90
11540;DHT22;5826;54.756;9.192;2022-12-16T10:57:16;1.00;99.90
11540;DHT22;5826;54.756;9.192;2022-12-16T11:00:16;1.00;99.90
11540;DHT22;5826;54.756;9.192;2022-12-16T11:03:19;1.10;99.90
11540;DHT22;5826;54.756;9.192;2022-12-16T11:06:04;1.10;99.90
11540;DHT22;5826;54.756;9.192;2022-12-16T11:08:48;1.20;99.90
11540;DHT22;5826;54.756;9.192;2022-12-16T11:11:32;1.20;99.90
11540;DHT22;5826;54.756;9.192;2022-12-16T11:17:21;1.30;99.90
11540;DHT22;5826;54.756;9.192;2022-12-16T11:23:23;1.30;99.90
11540;DHT22;5826;54.756;9.192;2022-12-16T11:26:16;1.40;99.90
11540;DHT22;5826;54.756;9.192;2022-12-16T11:29:08;1.40;99.90
11540;DHT22;5826;54.756;9.192;2022-12-16T11:32:02;1.40;99.90
11540;DHT22;5826;54.756;9.192;2022-12-16T11:34:54;1.40;99.90
11540;DHT22;5826;54.756;9.192;2022-12-16T11:37:40;1.40;99.90
11540;DHT22;5826;54.756;9.192;2022-12-16T11:40:25;1.50;99.90
11540;DHT22;5826;54.756;9.192;2022-12-16T11:43:12;1.50;99.90
11540;DHT22;5826;54.756;9.192;2022-12-16T11:45:59;1.50;99.90
11540;DHT22;5826;54.756;9.192;2022-12-16T11:48:51;1.50;99.90
11540;DHT22;5826;54.756;9.192;2022-12-16T11:51:38;1.50;99.90
11540;DHT22;5826;54.756;9.192;2022-12-16T11:54:29;1.50;99.90
11540;DHT22;5826;54.756;9.192;2022-12-16T11:57:40;1.60;99.90
11540;DHT22;5826;54.756;9.192;2022-12-16T12:00:26;1.60;99.90
11540;DHT22;5826;54.756;9.192;2022-12-16T12:03:13;1.60;99.90
11540;DHT22;5826;54.756;9.192;2022-12-16T12:09:11;1.70;99.90
11540;DHT22;5826;54.756;9.192;2022-12-16T12:13:01;1.70;99.90
11540;DHT22;5826;54.756;9.192;2022-12-16T12:15:32;1.80;99.90
11540;DHT22;5826;54.756;9.192;2022-12-16T12:18:31;1.80;99.90
11540;DHT22;5826;54.756;9.192;2022-12-16T12:21:26;1.80;99.90
11540;DHT22;5826;54.756;9.192;2022-12-16T12:27:15;1.80;99.90
11540;DHT22;5826;54.756;9.192;2022-12-16T12:30:09;1.80;99.90
11540;DHT22;5826;54.756;9.192;2022-12-16T12:36:25;1.90;99.90
11540;DHT22;5826;54.756;9.192;2022-12-16T12:39:50;1.90;99.90
11540;DHT22;5826;54.756;9.192;2022-12-16T12:42:47;2.00;99.90
11540;DHT22;5826;54.756;9.192;2022-12-16T12:51:48;2.30;99.90
11540;DHT22;5826;54.756;9.192;2022-12-16T12:57:46;2.50;99.90
11540;DHT22;5826;54.756;9.192;2022-12-16T13:00:38;2.60;99.90
11540;DHT22;5826;54.756;9.192;2022-12-16T13:03:45;2.70;99.90
11540;DHT22;5826;54.756;9.192;2022-12-16T13:06:29;2.70;99.90
11540;DHT22;5826;54.756;9.192;2022-12-16T13:09:38;2.60;99.90
11540;DHT22;5826;54.756;9.192;2022-12-16T13:12:25;2.50;99.90
11540;DHT22;5826;54.756;9.192;2022-12-16T13:18:17;2.40;99.90
11540;DHT22;5826;54.756;9.192;2022-12-16T13:21:02;2.30;99.90
11540;DHT22;5826;54.756;9.192;2022-12-16T13:23:46;2.20;99.90
11540;DHT22;5826;54.756;9.192;2022-12-16T13:26:32;2.20;99.90
11540;DHT22;5826;54.756;9.192;2022-12-16T13:29:31;2.20;99.90
11540;DHT22;5826;54.756;9.192;2022-12-16T13:32:23;2.20;99.90
11540;DHT22;5826;54.756;9.192;2022-12-16T13:41:01;2.10;99.90
11540;DHT22;5826;54.756;9.192;2022-12-16T13:43:58;2.10;99.90
11540;DHT22;5826;54.756;9.192;2022-12-16T13:46:46;2.10;99.90
11540;DHT22;5826;54.756;9.192;2022-12-16T13:49:45;2.00;99.90
11540;DHT22;5826;54.756;9.192;2022-12-16T13:55:30;1.90;99.90
11540;DHT22;5826;54.756;9.192;2022-12-16T14:04:43;1.70;99.90
11540;DHT22;5826;54.756;9.192;2022-12-16T14:07:30;1.70;99.90
11540;DHT22;5826;54.756;9.192;2022-12-16T14:16:36;1.50;99.90
11540;DHT22;5826;54.756;9.192;2022-12-16T14:25:21;1.30;99.90
11540;DHT22;5826;54.756;9.192;2022-12-16T14:28:38;1.30;99.90
11540;DHT22;5826;54.756;9.192;2022-12-16T14:31:33;1.20;99.90
11540;DHT22;5826;54.756;9.192;2022-12-16T14:34:21;1.20;99.90
11540;DHT22;5826;54.756;9.192;2022-12-16T14:37:27;1.10;99.90
11540;DHT22;5826;54.756;9.192;2022-12-16T14:40:20;1.00;99.90
11540;DHT22;5826;54.756;9.192;2022-12-16T14:43:11;1.00;99.90
11540;DHT22;5826;54.756;9.192;2022-12-16T14:45:56;0.90;99.90
11540;DHT22;5826;54.756;9.192;2022-12-16T14:48:45;0.80;99.90
11540;DHT22;5826;54.756;9.192;2022-12-16T14:51:34;0.80;99.90
11540;DHT22;5826;54.756;9.192;2022-12-16T14:57:24;0.60;99.90
11540;DHT22;5826;54.756;9.192;2022-12-16T15:00:10;0.60;99.90
11540;DHT22;5826;54.756;9.192;2022-12-16T15:03:17;0.50;99.90
11540;DHT22;5826;54.756;9.192;2022-12-16T15:06:04;0.40;99.90
11540;DHT22;5826;54.756;9.192;2022-12-16T15:08:55;0.40;99.90
11540;DHT22;5826;54.756;9.192;2022-12-16T15:11:41;0.30;99.90
11540;DHT22;5826;54.756;9.192;2022-12-16T15:14:31;0.30;99.90
11540;DHT22;5826;54.756;9.192;2022-12-16T15:17:29;0.20;99.90
11540;DHT22;5826;54.756;9.192;2022-12-16T15:20:20;0.20;99.90
11540;DHT22;5826;54.756;9.192;2022-12-16T15:23:18;0.20;99.90
11540;DHT22;5826;54.756;9.192;2022-12-16T15:26:04;0.10;99.90
11540;DHT22;5826;54.756;9.192;2022-12-16T15:28:49;0.10;99.90
11540;DHT22;5826;54.756;9.192;2022-12-16T15:31:36;0.40;99.90
11540;DHT22;5826;54.756;9.192;2022-12-16T15:34:24;0.00;99.90
11540;DHT22;5826;54.756;9.192;2022-12-16T15:37:15;0.00;99.90
11540;DHT22;5826;54.756;9.192;2022-12-16T15:40:01;0.00;99.90
11540;DHT22;5826;54.756;9.192;2022-12-16T15:42:49;-0.10;99.90
11540;DHT22;5826;54.756;9.192;2022-12-16T15:45:34;-0.10;99.90
11540;DHT22;5826;54.756;9.192;2022-12-16T15:48:30;-0.20;99.90
11540;DHT22;5826;54.756;9.192;2022-12-16T15:51:43;-0.20;99.90
11540;DHT22;5826;54.756;9.192;2022-12-16T15:54:28;-0.20;99.90
11540;DHT22;5826;54.756;9.192;2022-12-16T15:57:32;0.00;99.90
11540;DHT22;5826;54.756;9.192;2022-12-16T16:03:22;-0.30;99.90
11540;DHT22;5826;54.756;9.192;2022-12-16T16:06:16;-0.30;99.90
11540;DHT22;5826;54.756;9.192;2022-12-16T16:09:10;-0.30;99.90
11540;DHT22;5826;54.756;9.192;2022-12-16T16:11:54;-0.40;99.90
11540;DHT22;5826;54.756;9.192;2022-12-16T16:14:38;-0.40;99.90
11540;DHT22;5826;54.756;9.192;2022-12-16T16:17:22;-0.40;99.90
11540;DHT22;5826;54.756;9.192;2022-12-16T16:20:13;0.00;99.90
11540;DHT22;5826;54.756;9.192;2022-12-16T16:22:58;-0.50;99.90
11540;DHT22;5826;54.756;9.192;2022-12-16T16:25:42;-0.50;99.90
11540;DHT22;5826;54.756;9.192;2022-12-16T16:28:25;-0.50;99.90
11540;DHT22;5826;54.756;9.192;2022-12-16T16:31:10;-0.60;99.90
11540;DHT22;5826;54.756;9.192;2022-12-16T16:33:54;-0.50;99.90
11540;DHT22;5826;54.756;9.192;2022-12-16T16:36:38;-0.20;99.90
11540;DHT22;5826;54.756;9.192;2022-12-16T16:39:22;-0.60;99.90
11540;DHT22;5826;54.756;9.192;2022-12-16T16:42:08;-0.60;99.90
11540;DHT22;5826;54.756;9.192;2022-12-16T16:44:52;-0.60;99.90
11540;DHT22;5826;54.756;9.192;2022-12-16T16:47:36;-0.70;99.90
11540;DHT22;5826;54.756;9.192;2022-12-16T16:50:21;-0.10;99.90
11540;DHT22;5826;54.756;9.192;2022-12-16T16:53:07;-0.70;99.90
11540;DHT22;5826;54.756;9.192;2022-12-16T16:55:52;-0.70;99.90
11540;DHT22;5826;54.756;9.192;2022-12-16T16:58:37;-0.80;99.90
11540;DHT22;5826;54.756;9.192;2022-12-16T17:01:21;-0.80;99.90
11540;DHT22;5826;54.756;9.192;2022-12-16T17:04:05;-0.50;99.90
11540;DHT22;5826;54.756;9.192;2022-12-16T17:06:49;-0.90;99.90
11540;DHT22;5826;54.756;9.192;2022-12-16T17:09:33;-0.90;99.90
11540;DHT22;5826;54.756;9.192;2022-12-16T17:12:23;-1.00;99.90
11540;DHT22;5826;54.756;9.192;2022-12-16T17:15:21;-0.90;99.90
11540;DHT22;5826;54.756;9.192;2022-12-16T17:18:06;-0.90;99.90
11540;DHT22;5826;54.756;9.192;2022-12-16T17:20:50;-1.00;99.90
11540;DHT22;5826;54.756;9.192;2022-12-16T17:23:35;-0.70;99.90
11540;DHT22;5826;54.756;9.192;2022-12-16T17:26:19;-0.90;99.90
11540;DHT22;5826;54.756;9.192;2022-12-16T17:29:03;-0.90;99.90
11540;DHT22;5826;54.756;9.192;2022-12-16T17:31:49;-0.90;99.90
11540;DHT22;5826;54.756;9.192;2022-12-16T17:34:33;-0.90;99.90
11540;DHT22;5826;54.756;9.192;2022-12-16T17:37:17;-1.00;99.90
11540;DHT22;5826;54.756;9.192;2022-12-16T17:40:01;-1.00;99.90
11540;DHT22;5826;54.756;9.192;2022-12-16T17:42:45;-1.00;99.90
11540;DHT22;5826;54.756;9.192;2022-12-16T17:45:29;-0.90;99.90
11540;DHT22;5826;54.756;9.192;2022-12-16T17:48:13;-0.90;99.90
11540;DHT22;5826;54.756;9.192;2022-12-16T17:50:59;-0.90;99.90
11540;DHT22;5826;54.756;9.192;2022-12-16T17:53:43;-0.90;99.90
11540;DHT22;5826;54.756;9.192;2022-12-16T17:56:27;-0.90;99.90
11540;DHT22;5826;54.756;9.192;2022-12-16T17:59:11;-0.80;99.90
11540;DHT22;5826;54.756;9.192;2022-12-16T18:01:56;-1.00;99.90
11540;DHT22;5826;54.756;9.192;2022-12-16T18:04:40;-1.10;99.90
11540;DHT22;5826;54.756;9.192;2022-12-16T18:07:24;-1.10;99.90
11540;DHT22;5826;54.756;9.192;2022-12-16T18:10:08;-1.10;99.90
11540;DHT22;5826;54.756;9.192;2022-12-16T18:12:53;-1.20;99.90
11540;DHT22;5826;54.756;9.192;2022-12-16T18:15:38;-1.20;99.90
11540;DHT22;5826;54.756;9.192;2022-12-16T18:18:22;-1.20;99.90
11540;DHT22;5826;54.756;9.192;2022-12-16T18:21:10;-1.30;99.90
11540;DHT22;5826;54.756;9.192;2022-12-16T18:23:55;-1.30;99.90
11540;DHT22;5826;54.756;9.192;2022-12-16T18:26:39;-1.30;99.90
11540;DHT22;5826;54.756;9.192;2022-12-16T18:29:24;-1.30;99.90
11540;DHT22;5826;54.756;9.192;2022-12-16T18:32:09;-1.40;99.90
11540;DHT22;5826;54.756;9.192;2022-12-16T18:34:53;-1.40;99.90
11540;DHT22;5826;54.756;9.192;2022-12-16T18:37:37;-1.40;99.90
11540;DHT22;5826;54.756;9.192;2022-12-16T18:40:21;-1.20;99.90
11540;DHT22;5826;54.756;9.192;2022-12-16T18:43:05;-1.40;99.90
11540;DHT22;5826;54.756;9.192;2022-12-16T18:45:53;-1.50;99.90
11540;DHT22;5826;54.756;9.192;2022-12-16T18:48:37;-1.50;99.90
11540;DHT22;5826;54.756;9.192;2022-12-16T18:51:22;-1.10;99.90
11540;DHT22;5826;54.756;9.192;2022-12-16T18:54:06;-1.50;99.90
11540;DHT22;5826;54.756;9.192;2022-12-16T18:56:50;-1.60;99.90
11540;DHT22;5826;54.756;9.192;2022-12-16T18:59:34;-1.60;99.90
11540;DHT22;5826;54.756;9.192;2022-12-16T19:02:18;-1.60;99.90
11540;DHT22;5826;54.756;9.192;2022-12-16T19:05:02;-1.60;99.90
11540;DHT22;5826;54.756;9.192;2022-12-16T19:07:46;-1.60;99.90
11540;DHT22;5826;54.756;9.192;2022-12-16T19:10:31;-1.70;99.90
11540;DHT22;5826;54.756;9.192;2022-12-16T19:13:15;-1.80;99.90
11540;DHT22;5826;54.756;9.192;2022-12-16T19:15:59;-1.80;99.90
11540;DHT22;5826;54.756;9.192;2022-12-16T19:18:43;-1.80;99.90
11540;DHT22;5826;54.756;9.192;2022-12-16T19:21:27;-1.80;99.90
11540;DHT22;5826;54.756;9.192;2022-12-16T19:24:11;-1.80;99.90